Time;durP1;ratioP1;P1;durP2;ratioP2;P2;SDS_P1;SDS_P2;PMS_P1;PMS_P2;Temp;Humidity;BMP_temperature;BMP_pressure;BME280_temperature;BME280_humidity;BME280_pressure;Samples;Min_cycle;Max_cycle;Signal;HPM_P1;HPM_P2
2023/03/22 00:00:55;;;;;;;22.03;11.13;;;;;;;7.56;100.00;100593.47;7393668;19;20473;-39
2023/03/22 00:03:26;;;;;;;19.70;11.50;;;;;;;7.52;100.00;100588.06;7393533;19;20459;-40
2023/03/22 00:05:59;;;;;;;30.13;9.13;;;;;;;7.54;100.00;100589.06;7395215;19;20395;-42
2023/03/22 00:08:28;;;;;;;21.07;11.60;;;;;;;7.55;100.00;100589.09;7392605;19;20447;-39
2023/03/22 00:10:57;;;;;;;23.40;12.90;;;;;;;7.56;100.00;100583.19;7395029;19;20424;-39
2023/03/22 00:13:27;;;;;;;18.83;11.23;;;;;;;7.60;100.00;100576.53;7387681;19;20430;-42
2023/03/22 00:16:01;;;;;;;23.47;11.90;;;;;;;7.57;100.00;100576.34;7395210;19;20410;-40
2023/03/22 00:18:31;;;;;;;19.30;11.50;;;;;;;7.57;100.00;100566.09;7390220;19;21442;-39
2023/03/22 00:21:01;;;;;;;18.10;11.20;;;;;;;7.59;100.00;100564.47;7393958;19;20415;-39
2023/03/22 00:23:31;;;;;;;20.00;12.30;;;;;;;7.59;100.00;100559.31;7392889;19;20443;-40
2023/03/22 00:26:00;;;;;;;18.70;10.93;;;;;;;7.58;100.00;100547.31;7394813;19;20957;-41
2023/03/22 00:28:30;;;;;;;22.83;13.00;;;;;;;7.60;100.00;100553.41;7392419;19;20466;-40
2023/03/22 00:31:03;;;;;;;23.83;12.00;;;;;;;7.60;100.00;100538.00;7394857;19;20411;-40
2023/03/22 00:33:33;;;;;;;27.73;12.80;;;;;;;7.62;100.00;100543.19;7392329;19;21059;-40
2023/03/22 00:36:05;;;;;;;20.93;9.13;;;;;;;7.60;100.00;100535.44;7395284;19;20410;-41
2023/03/22 00:38:35;;;;;;;24.70;11.93;;;;;;;7.64;100.00;100533.91;7391634;19;20464;-39
2023/03/22 00:41:15;;;;;;;24.27;13.37;;;;;;;7.63;100.00;100525.31;7394066;19;20391;-42
2023/03/22 00:43:45;;;;;;;25.33;13.30;;;;;;;7.60;100.00;100514.91;7390343;19;20450;-40
2023/03/22 00:46:18;;;;;;;19.03;12.40;;;;;;;7.53;100.00;100520.50;7394596;19;20391;-40
2023/03/22 00:48:48;;;;;;;17.47;11.07;;;;;;;7.53;100.00;100533.34;7390274;19;20462;-39
2023/03/22 00:51:18;;;;;;;24.20;12.83;;;;;;;7.52;100.00;100526.44;7394680;19;20433;-42
2023/03/22 00:53:49;;;;;;;18.33;11.03;;;;;;;7.55;100.00;100513.78;7390970;19;20438;-41
2023/03/22 00:56:21;;;;;;;26.43;14.17;;;;;;;7.59;100.00;100512.25;7394581;19;20966;-41
2023/03/22 00:58:51;;;;;;;25.00;14.37;;;;;;;7.57;100.00;100509.59;7389249;19;20482;-41
2023/03/22 01:01:23;;;;;;;22.20;13.87;;;;;;;7.63;100.00;100499.63;7394406;19;20408;-39
2023/03/22 01:03:52;;;;;;;22.10;11.87;;;;;;;7.60;100.00;100503.75;7391508;19;20476;-39
2023/03/22 01:06:22;;;;;;;22.50;13.40;;;;;;;7.61;100.00;100492.66;7394256;19;20486;-41
2023/03/22 01:08:53;;;;;;;25.57;13.50;;;;;;;7.60;100.00;100489.22;7389881;19;20915;-43
2023/03/22 01:11:23;;;;;;;26.13;12.93;;;;;;;7.62;100.00;100481.56;7395923;19;20403;-40
2023/03/22 01:13:53;;;;;;;21.47;11.87;;;;;;;7.63;100.00;100484.22;7390203;19;20442;-39
2023/03/22 01:16:25;;;;;;;18.70;10.30;;;;;;;7.67;100.00;100470.75;7390464;19;20411;-41
2023/03/22 01:18:55;;;;;;;30.53;14.17;;;;;;;7.67;100.00;100481.00;7383724;19;20438;-40
2023/03/22 01:21:25;;;;;;;23.90;14.63;;;;;;;7.70;100.00;100478.59;7387246;19;20392;-40
2023/03/22 01:23:54;;;;;;;25.97;15.93;;;;;;;7.71;100.00;100474.34;7385622;19;20418;-40
2023/03/22 01:26:24;;;;;;;26.50;14.07;;;;;;;7.72;100.00;100465.81;7390986;19;20407;-40
2023/03/22 01:28:53;;;;;;;21.03;10.30;;;;;;;7.72;100.00;100457.22;7391959;19;20457;-40
2023/03/22 01:31:25;;;;;;;25.00;14.10;;;;;;;7.73;100.00;100449.59;7395213;19;20395;-40
2023/03/22 01:33:55;;;;;;;23.50;14.50;;;;;;;7.77;100.00;100450.63;7392701;19;20443;-42
2023/03/22 01:36:24;;;;;;;24.03;13.90;;;;;;;7.77;100.00;100453.19;7394861;19;20391;-42
2023/03/22 01:38:54;;;;;;;26.50;16.30;;;;;;;7.78;100.00;100447.25;7391351;19;20434;-40
2023/03/22 01:41:24;;;;;;;27.00;15.37;;;;;;;7.80;100.00;100446.50;7393402;19;20427;-40
2023/03/22 01:44:09;;;;;;;30.87;15.90;;;;;;;7.82;100.00;100444.94;7390553;19;20970;-43
2023/03/22 01:46:41;;;;;;;22.90;13.70;;;;;;;7.81;100.00;100438.00;7394605;19;20970;-41
2023/03/22 01:49:12;;;;;;;27.10;14.03;;;;;;;7.83;100.00;100440.66;7390451;19;20446;-39
2023/03/22 01:51:45;;;;;;;24.00;14.13;;;;;;;7.81;100.00;100439.69;7394055;19;20880;-39
2023/03/22 01:54:17;;;;;;;29.00;15.10;;;;;;;7.86;100.00;100429.63;7392849;19;20415;-39
2023/03/22 01:56:47;;;;;;;26.80;15.10;;;;;;;7.89;100.00;100429.81;7395604;19;20400;-41
2023/03/22 01:59:17;;;;;;;22.40;11.03;;;;;;;7.89;100.00;100430.66;7391854;19;20454;-42
2023/03/22 02:01:49;;;;;;;25.10;15.00;;;;;;;7.91;100.00;100426.50;7393510;19;20399;-42
2023/03/22 02:04:22;;;;;;;22.43;13.60;;;;;;;7.91;100.00;100417.91;7396199;19;20472;-39
2023/03/22 02:06:53;;;;;;;24.23;14.30;;;;;;;7.93;100.00;100431.69;7394312;19;20443;-39
2023/03/22 02:09:23;;;;;;;23.17;13.40;;;;;;;7.96;100.00;100427.56;7389938;19;20429;-43
2023/03/22 02:11:56;;;;;;;24.73;14.63;;;;;;;7.93;100.00;100419.75;7396909;19;20831;-40
2023/03/22 02:14:44;;;;;;;31.60;14.73;;;;;;;7.95;100.00;100418.09;7397429;19;20997;-41
2023/03/22 02:17:29;;;;;;;31.37;15.57;;;;;;;7.99;100.00;100420.84;7393407;19;20960;-43
2023/03/22 02:20:27;;;;;;;24.47;13.30;;;;;;;8.00;100.00;100417.47;7397889;19;20423;-40
2023/03/22 02:23:16;;;;;;;24.50;14.30;;;;;;;8.00;100.00;100415.75;7392444;19;20427;-40
2023/03/22 02:26:02;;;;;;;27.80;14.20;;;;;;;7.99;100.00;100416.56;7394606;19;20849;-40
2023/03/22 02:28:42;;;;;;;25.60;15.00;;;;;;;8.04;100.00;100411.63;7394482;19;20431;-40
2023/03/22 02:31:41;;;;;;;24.07;12.97;;;;;;;8.04;100.00;100414.19;7394778;19;20970;-41
2023/03/22 02:34:44;;;;;;;22.00;12.20;;;;;;;8.03;100.00;100409.88;7389427;19;20439;-43
2023/03/22 02:37:39;;;;;;;25.43;15.73;;;;;;;8.07;100.00;100404.09;7393006;19;20398;-39
2023/03/22 02:40:16;;;;;;;25.03;15.30;;;;;;;8.04;100.00;100404.81;7393636;19;20427;-41
2023/03/22 02:42:54;;;;;;;22.30;12.97;;;;;;;8.06;100.00;100397.19;7391754;19;20550;-40
2023/03/22 02:45:30;;;;;;;25.00;14.30;;;;;;;8.10;100.00;100393.94;7398676;19;20391;-43
2023/03/22 02:48:06;;;;;;;25.63;14.47;;;;;;;8.10;100.00;100396.50;7390985;19;20407;-39
2023/03/22 02:50:41;;;;;;;25.97;13.10;;;;;;;8.14;100.00;100398.41;7392678;19;20452;-39
2023/03/22 02:53:16;;;;;;;24.47;15.30;;;;;;;8.18;100.00;100407.13;7392703;19;20434;-40
2023/03/22 02:55:52;;;;;;;25.23;14.60;;;;;;;8.17;100.00;100396.00;7394947;19;20411;-40
2023/03/22 02:58:25;;;;;;;24.23;14.57;;;;;;;8.20;100.00;100401.25;7389782;19;20426;-40
2023/03/22 03:00:58;;;;;;;27.90;15.17;;;;;;;8.24;100.00;100387.75;7392324;19;20857;-40
2023/03/22 03:03:29;;;;;;;26.43;14.73;;;;;;;8.28;100.00;100403.28;7393592;19;20448;-41
2023/03/22 03:06:02;;;;;;;20.10;12.40;;;;;;;8.29;100.00;100402.47;7398644;19;20402;-40
2023/03/22 03:08:32;;;;;;;22.40;12.50;;;;;;;8.34;100.00;100398.44;7392987;19;20461;-40
2023/03/22 03:11:04;;;;;;;27.30;14.30;;;;;;;8.40;100.00;100392.72;7394992;19;20396;-41
2023/03/22 03:13:34;;;;;;;13.10;8.20;;;;;;;8.41;100.00;100394.47;7392209;19;20776;-40
2023/03/22 03:16:06;;;;;;;21.73;13.50;;;;;;;8.42;100.00;100398.78;7393652;19;20395;-40
2023/03/22 03:18:43;;;;;;;17.60;10.67;;;;;;;8.40;100.00;100400.41;7392795;19;20535;-39
2023/03/22 03:21:22;;;;;;;24.30;12.63;;;;;;;8.40;100.00;100396.13;7394273;19;20392;-40
2023/03/22 03:23:57;;;;;;;24.33;13.23;;;;;;;8.44;100.00;100399.72;7389513;19;20512;-41
2023/03/22 03:26:31;;;;;;;21.80;11.30;;;;;;;8.42;100.00;100399.69;7393712;19;20392;-41
2023/03/22 03:29:03;;;;;;;20.37;12.53;;;;;;;8.42;100.00;100396.22;7390502;19;20448;-39
2023/03/22 03:31:37;;;;;;;20.73;12.80;;;;;;;8.37;100.00;100394.31;7393896;19;20399;-42
2023/03/22 03:34:15;;;;;;;21.20;11.97;;;;;;;8.36;100.00;100401.97;7388611;19;20931;-40
2023/03/22 03:36:49;;;;;;;21.87;10.97;;;;;;;8.33;100.00;100395.00;7391829;19;20926;-39
2023/03/22 03:39:20;;;;;;;19.17;11.60;;;;;;;8.31;100.00;100394.03;7387904;19;20449;-39
2023/03/22 03:41:53;;;;;;;20.63;11.83;;;;;;;8.29;100.00;100389.63;7391491;19;20402;-42
2023/03/22 03:44:23;;;;;;;18.43;11.50;;;;;;;8.26;100.00;100395.53;7387218;19;20450;-40
2023/03/22 03:46:53;;;;;;;20.80;11.57;;;;;;;8.24;100.00;100392.91;7391779;19;20388;-41
2023/03/22 03:49:24;;;;;;;18.33;9.50;;;;;;;8.22;100.00;100394.50;7387476;19;20430;-40
2023/03/22 03:51:55;;;;;;;17.53;10.80;;;;;;;8.18;100.00;100384.91;7391519;19;20915;-39
2023/03/22 03:54:25;;;;;;;16.17;9.60;;;;;;;8.18;100.00;100392.63;7391334;19;20422;-39
2023/03/22 03:56:57;;;;;;;14.20;8.30;;;;;;;8.14;100.00;100392.41;7391941;19;20384;-39
2023/03/22 03:59:27;;;;;;;25.27;12.57;;;;;;;8.15;100.00;100386.47;7388872;19;20961;-41
2023/03/22 04:01:56;;;;;;;20.43;9.10;;;;;;;8.12;100.00;100397.47;7391392;19;20384;-41
2023/03/22 04:04:28;;;;;;;18.30;11.60;;;;;;;8.12;100.00;100397.47;7389800;19;20454;-39
2023/03/22 04:07:00;;;;;;;20.07;11.47;;;;;;;8.10;100.00;100387.13;7391647;19;20418;-39
2023/03/22 04:09:31;;;;;;;25.37;11.27;;;;;;;8.08;100.00;100385.28;7389132;19;21000;-41
2023/03/22 04:12:03;;;;;;;23.50;12.50;;;;;;;8.09;100.00;100384.47;7388857;19;20376;-38
2023/03/22 04:14:33;;;;;;;20.20;11.63;;;;;;;8.07;100.00;100376.72;7391061;19;20387;-43
2023/03/22 04:17:03;;;;;;;21.73;11.00;;;;;;;8.04;100.00;100384.25;7387588;19;20419;-40
2023/03/22 04:19:32;;;;;;;23.33;10.20;;;;;;;8.04;100.00;100379.13;7389821;19;20427;-39
2023/03/22 04:22:02;;;;;;;23.23;10.90;;;;;;;8.02;100.00;100380.75;7389834;19;20400;-41
2023/03/22 04:24:31;;;;;;;22.33;11.80;;;;;;;8.03;100.00;100366.19;7389612;19;20388;-44
2023/03/22 04:27:03;;;;;;;20.20;9.40;;;;;;;8.02;100.00;100377.28;7388682;19;20396;-39
2023/03/22 04:29:35;;;;;;;19.30;11.70;;;;;;;7.99;100.00;100364.31;7388570;19;20430;-41
2023/03/22 04:32:04;;;;;;;22.30;12.23;;;;;;;8.01;100.00;100365.25;7389357;19;20410;-39
2023/03/22 04:34:34;;;;;;;15.87;9.53;;;;;;;8.01;100.00;100357.56;7390501;19;20737;-40
2023/03/22 04:37:03;;;;;;;20.00;11.80;;;;;;;8.04;100.00;100362.81;7388784;19;20428;-39
2023/03/22 04:39:33;;;;;;;15.93;9.53;;;;;;;8.04;100.00;100357.69;7389499;19;20410;-41
2023/03/22 04:42:06;;;;;;;18.83;11.23;;;;;;;8.05;100.00;100355.19;7389357;19;20388;-39
2023/03/22 04:44:35;;;;;;;19.10;10.67;;;;;;;8.04;100.00;100353.44;7388878;19;20407;-41
2023/03/22 04:47:05;;;;;;;19.13;10.73;;;;;;;8.05;100.00;100349.19;7388780;19;20942;-40
2023/03/22 04:49:34;;;;;;;10.73;6.77;;;;;;;8.03;100.00;100350.78;7388407;19;20427;-40
2023/03/22 04:52:05;;;;;;;18.23;9.50;;;;;;;8.04;100.00;100347.41;7389135;19;20927;-39
2023/03/22 04:54:34;;;;;;;22.60;11.50;;;;;;;8.02;100.00;100346.47;7390092;19;20411;-40
2023/03/22 04:57:06;;;;;;;21.00;11.70;;;;;;;8.01;100.00;100339.56;7388263;19;20410;-39
2023/03/22 04:59:36;;;;;;;20.00;11.10;;;;;;;7.98;100.00;100337.72;7388677;19;20431;-40
2023/03/22 05:02:05;;;;;;;19.73;11.00;;;;;;;8.01;100.00;100334.44;7397244;19;20411;-39
2023/03/22 05:04:35;;;;;;;13.27;8.17;;;;;;;8.01;100.00;100344.69;7396340;19;20395;-39
2023/03/22 05:07:07;;;;;;;21.57;10.70;;;;;;;7.99;100.00;100342.06;7396370;19;20396;-40
2023/03/22 05:09:36;;;;;;;12.80;5.70;;;;;;;7.99;100.00;100341.19;7395101;19;20419;-39
2023/03/22 05:12:09;;;;;;;22.30;13.10;;;;;;;8.03;100.00;100337.94;7392629;19;20390;-40
2023/03/22 05:14:38;;;;;;;15.20;9.10;;;;;;;7.99;100.00;100336.06;7400180;19;20392;-39
2023/03/22 05:17:08;;;;;;;20.63;10.07;;;;;;;8.01;100.00;100344.69;7396075;19;20411;-39
2023/03/22 05:19:37;;;;;;;18.80;10.70;;;;;;;8.02;100.00;100338.75;7394438;19;20415;-40
2023/03/22 05:22:07;;;;;;;21.27;11.00;;;;;;;8.03;100.00;100338.81;7395277;19;21046;-40
2023/03/22 05:24:36;;;;;;;21.53;9.67;;;;;;;8.06;100.00;100340.66;7395701;19;20399;-41
2023/03/22 05:27:09;;;;;;;19.33;9.70;;;;;;;8.05;100.00;100341.47;7395269;19;20380;-39
2023/03/22 05:29:43;;;;;;;16.10;9.90;;;;;;;8.03;100.00;100340.50;7395098;19;20890;-42
2023/03/22 05:32:13;;;;;;;17.63;9.60;;;;;;;8.06;100.00;100344.09;7394650;19;20392;-40
2023/03/22 05:34:44;;;;;;;19.33;9.73;;;;;;;8.07;100.00;100352.69;7396677;19;20384;-39
2023/03/22 05:37:13;;;;;;;15.13;9.33;;;;;;;8.06;100.00;100353.50;7395563;19;20391;-42
2023/03/22 05:39:43;;;;;;;19.40;11.03;;;;;;;8.09;100.00;100351.94;7395052;19;20436;-40
2023/03/22 05:42:15;;;;;;;18.13;9.70;;;;;;;8.10;100.00;100353.72;7394522;19;20387;-39
2023/03/22 05:44:44;;;;;;;16.73;9.57;;;;;;;8.13;100.00;100355.53;7395280;19;20403;-43
2023/03/22 05:47:14;;;;;;;18.37;9.27;;;;;;;8.12;100.00;100351.22;7393553;19;20401;-40
2023/03/22 05:49:44;;;;;;;23.33;8.40;;;;;;;8.14;100.00;100349.59;7395124;19;20412;-41
2023/03/22 05:52:13;;;;;;;17.13;9.80;;;;;;;8.13;100.00;100358.09;7394515;19;20388;-39
2023/03/22 05:54:43;;;;;;;20.23;9.03;;;;;;;8.13;100.00;100352.97;7395876;19;20395;-40
2023/03/22 05:57:15;;;;;;;13.30;6.90;;;;;;;8.14;100.00;100354.72;7394314;19;20384;-40
2023/03/22 05:59:45;;;;;;;16.07;8.90;;;;;;;8.14;100.00;100347.00;7394510;19;21156;-39
2023/03/22 06:02:17;;;;;;;15.20;9.20;;;;;;;8.17;100.00;100347.16;7394272;19;20431;-40
2023/03/22 06:04:46;;;;;;;21.43;9.57;;;;;;;8.17;100.00;100349.75;7394700;19;20420;-44
2023/03/22 06:07:16;;;;;;;18.40;8.80;;;;;;;8.20;100.00;100354.13;7393310;19;20420;-39
2023/03/22 06:09:46;;;;;;;19.40;9.80;;;;;;;8.21;100.00;100345.63;7394391;19;21276;-42
2023/03/22 06:12:21;;;;;;;15.67;7.90;;;;;;;8.22;100.00;100348.22;7396171;19;20412;-41
2023/03/22 06:14:50;;;;;;;17.13;8.83;;;;;;;8.28;100.00;100341.59;7395186;19;20392;-44
2023/03/22 06:17:20;;;;;;;20.27;9.00;;;;;;;8.26;100.00;100339.00;7391935;19;20423;-39
2023/03/22 06:19:49;;;;;;;19.13;9.47;;;;;;;8.29;100.00;100338.22;7393068;19;20483;-40
2023/03/22 06:22:21;;;;;;;17.30;8.40;;;;;;;8.31;100.00;100341.75;7393193;19;21093;-40
2023/03/22 06:24:51;;;;;;;11.00;6.10;;;;;;;8.33;100.00;100334.97;7394390;19;20387;-39
2023/03/22 06:27:23;;;;;;;13.23;7.50;;;;;;;8.40;100.00;100336.16;7394060;19;20425;-42
2023/03/22 06:29:53;;;;;;;14.97;7.67;;;;;;;8.43;100.00;100347.44;7393505;19;20415;-40
2023/03/22 06:32:25;;;;;;;13.33;8.07;;;;;;;8.46;100.00;100337.28;7393171;19;20399;-39
2023/03/22 06:34:55;;;;;;;13.13;7.23;;;;;;;8.51;100.00;100340.97;7395297;19;20698;-40
2023/03/22 06:37:25;;;;;;;12.77;6.80;;;;;;;8.57;100.00;100344.63;7392475;19;20406;-40
2023/03/22 06:39:54;;;;;;;11.60;7.20;;;;;;;8.60;100.00;100342.16;7392700;19;20966;-41
2023/03/22 06:42:29;;;;;;;13.47;6.43;;;;;;;8.63;100.00;100352.59;7392878;19;20877;-41
2023/03/22 06:44:59;;;;;;;16.53;7.00;;;;;;;8.71;100.00;100361.53;7393593;19;20379;-42
2023/03/22 06:47:29;;;;;;;15.47;7.13;;;;;;;8.73;100.00;100366.75;7392536;19;20410;-40
2023/03/22 06:49:58;;;;;;;16.03;7.90;;;;;;;8.82;100.00;100361.09;7392627;19;20438;-42
2023/03/22 06:52:28;;;;;;;12.13;6.77;;;;;;;8.83;100.00;100362.88;7391977;19;20435;-40
2023/03/22 06:54:57;;;;;;;15.77;6.43;;;;;;;8.85;100.00;100362.13;7393805;19;20758;-43
2023/03/22 06:57:30;;;;;;;13.40;8.20;;;;;;;8.91;100.00;100358.91;7391967;19;20411;-42
2023/03/22 06:59:59;;;;;;;17.10;6.03;;;;;;;8.91;100.00;100366.63;7394236;19;20412;-42
2023/03/22 07:02:29;;;;;;;15.60;7.40;;;;;;;8.94;100.00;100369.34;7392219;19;20403;-43
2023/03/22 07:04:58;;;;;;;13.60;6.70;;;;;;;8.96;100.00;100372.00;7394199;19;20380;-40
2023/03/22 07:07:28;;;;;;;20.73;7.70;;;;;;;8.99;100.00;100369.53;7391651;19;20423;-44
2023/03/22 07:09:57;;;;;;;12.07;6.50;;;;;;;9.03;100.00;100362.00;7390028;19;20438;-41
2023/03/22 07:12:29;;;;;;;14.03;7.20;;;;;;;9.09;100.00;100373.38;7391559;19;20414;-43
2023/03/22 07:14:59;;;;;;;15.77;6.57;;;;;;;9.11;100.00;100370.03;7393579;19;20479;-40
2023/03/22 07:17:29;;;;;;;14.40;7.80;;;;;;;9.14;100.00;100370.16;7390805;19;20415;-42
2023/03/22 07:19:58;;;;;;;10.00;6.20;;;;;;;9.15;100.00;100371.94;7392538;19;20420;-47
2023/03/22 07:22:28;;;;;;;13.53;6.40;;;;;;;9.22;100.00;100365.34;7391211;19;20407;-40
2023/03/22 07:24:57;;;;;;;14.00;7.50;;;;;;;9.22;100.00;100367.91;7391230;19;20923;-42
2023/03/22 07:27:32;;;;;;;11.63;6.20;;;;;;;9.26;100.00;100369.81;7395496;19;20763;-42
2023/03/22 07:30:01;;;;;;;11.90;6.10;;;;;;;9.30;100.00;100365.66;7392352;19;20419;-40
2023/03/22 07:32:31;;;;;;;14.33;6.77;;;;;;;9.37;100.00;100356.47;7390552;19;20415;-39
2023/03/22 07:35:01;;;;;;;11.50;7.10;;;;;;;9.38;100.00;100350.53;7392859;19;20424;-41
2023/03/22 07:37:30;;;;;;;14.63;6.60;;;;;;;9.42;100.00;100354.97;7390242;19;20435;-40
2023/03/22 07:40:00;;;;;;;15.13;7.60;;;;;;;9.48;100.00;100350.06;7390826;19;20423;-42
2023/03/22 07:42:33;;;;;;;22.80;8.00;;;;;;;9.57;100.00;100359.84;7390537;19;20411;-41
2023/03/22 07:45:03;;;;;;;16.23;7.90;;;;;;;9.66;100.00;100354.19;7391782;19;20858;-48
2023/03/22 07:47:32;;;;;;;16.60;6.37;;;;;;;9.63;100.00;100357.50;7390437;19;20415;-42
2023/03/22 07:50:11;;;;;;;17.93;6.40;;;;;;;9.67;100.00;100353.34;7391185;19;20434;-43
2023/03/22 07:52:40;;;;;;;17.77;7.63;;;;;;;9.72;100.00;100349.28;7390096;19;20411;-44
2023/03/22 07:55:12;;;;;;;18.03;9.10;;;;;;;9.77;100.00;100337.44;7393175;19;20945;-47
2023/03/22 07:57:44;;;;;;;20.03;9.73;;;;;;;9.84;100.00;100333.38;7387543;19;20410;-41
2023/03/22 08:00:16;;;;;;;20.70;9.77;;;;;;;9.76;100.00;100327.97;7390994;19;20444;-46
2023/03/22 08:02:46;;;;;;;15.83;7.17;;;;;;;9.77;100.00;100322.00;7390179;19;20443;-46
2023/03/22 08:05:16;;;;;;;17.53;6.30;;;;;;;9.76;100.00;100307.34;7394713;19;20467;-42
2023/03/22 08:07:46;;;;;;;14.13;8.47;;;;;;;9.77;100.00;100306.53;7389854;19;20411;-39
2023/03/22 08:10:15;;;;;;;17.33;8.70;;;;;;;9.79;100.00;100297.16;7390821;19;20447;-43
2023/03/22 08:12:48;;;;;;;16.37;8.30;;;;;;;9.86;100.00;100286.25;7389718;19;20951;-44
2023/03/22 08:15:17;;;;;;;18.37;10.07;;;;;;;9.90;100.00;100283.81;7392487;19;20412;-41
2023/03/22 08:17:51;;;;;;;13.43;7.57;;;;;;;9.91;100.00;100275.25;7388967;19;20977;-42
2023/03/22 08:20:21;;;;;;;19.60;11.23;;;;;;;9.94;100.00;100268.50;7390156;19;20427;-43
2023/03/22 08:22:51;;;;;;;17.50;9.90;;;;;;;9.96;100.00;100272.00;7389227;19;20431;-43
2023/03/22 08:25:20;;;;;;;15.60;7.57;;;;;;;9.94;100.00;100270.22;7391656;19;20411;-42
2023/03/22 08:27:52;;;;;;;23.70;10.40;;;;;;;9.98;100.00;100259.19;7389683;19;20435;-39
2023/03/22 08:30:23;;;;;;;21.00;7.90;;;;;;;9.99;100.00;100250.63;7390501;19;20427;-41
2023/03/22 08:32:52;;;;;;;16.27;9.70;;;;;;;10.03;100.00;100252.50;7386601;19;20447;-42
2023/03/22 08:35:22;;;;;;;13.80;7.43;;;;;;;10.10;100.00;100244.16;7390923;19;20424;-42
2023/03/22 08:37:55;;;;;;;10.07;6.00;;;;;;;10.16;100.00;100258.09;7388878;19;20417;-40
2023/03/22 08:40:24;;;;;;;14.80;7.57;;;;;;;10.15;100.00;100257.19;7389769;19;20491;-41
2023/03/22 08:42:57;;;;;;;17.27;8.97;;;;;;;10.26;100.00;100252.44;7388356;19;20986;-42
2023/03/22 08:45:27;;;;;;;20.37;11.13;;;;;;;10.46;100.00;100258.31;7390558;19;20395;-43
2023/03/22 08:47:58;;;;;;;12.67;5.13;;;;;;;10.56;100.00;100256.91;7389401;19;20411;-42
2023/03/22 08:50:28;;;;;;;10.67;5.53;;;;;;;10.56;100.00;100254.31;7389903;19;20782;-43
2023/03/22 08:52:59;;;;;;;10.47;5.43;;;;;;;10.60;100.00;100255.31;7388417;19;20419;-44
2023/03/22 08:55:28;;;;;;;16.20;8.00;;;;;;;10.71;100.00;100259.13;7391248;19;20390;-40
2023/03/22 08:58:03;;;;;;;13.33;8.17;;;;;;;10.66;100.00;100261.56;7390269;19;20438;-40
2023/03/22 09:00:33;;;;;;;18.00;8.00;;;;;;;10.73;100.00;100262.66;7389204;19;20418;-38
2023/03/22 09:03:16;;;;;;;13.30;6.23;;;;;;;10.70;100.00;100254.81;7388818;19;20419;-41
2023/03/22 09:05:45;;;;;;;14.33;7.47;;;;;;;10.74;100.00;100254.09;7393019;19;20439;-41
2023/03/22 09:08:15;;;;;;;12.20;5.73;;;;;;;10.93;100.00;100255.53;7388502;19;20438;-39
2023/03/22 09:10:50;;;;;;;15.30;7.63;;;;;;;11.11;100.00;100259.56;7388522;19;20426;-42
2023/03/22 09:13:23;;;;;;;10.90;5.60;;;;;;;11.18;100.00;100261.50;7388820;19;20770;-43
2023/03/22 09:15:52;;;;;;;7.70;4.13;;;;;;;11.24;100.00;100273.75;7390382;19;20392;-42
2023/03/22 09:18:23;;;;;;;8.27;4.10;;;;;;;11.16;100.00;100272.59;7385958;19;20419;-42
2023/03/22 09:20:53;;;;;;;11.53;6.00;;;;;;;11.21;100.00;100274.50;7388590;19;20509;-43
2023/03/22 09:23:22;;;;;;;11.27;6.53;;;;;;;11.23;100.00;100271.97;7388121;19;20419;-39
2023/03/22 09:25:52;;;;;;;10.80;5.20;;;;;;;11.17;100.00;100276.94;7389656;19;20398;-41
2023/03/22 09:28:26;;;;;;;11.93;6.50;;;;;;;11.20;100.00;100275.34;7387497;19;20411;-42
2023/03/22 09:30:55;;;;;;;8.57;4.40;;;;;;;11.24;100.00;100267.69;7388593;19;20436;-42
2023/03/22 09:33:25;;;;;;;10.90;4.60;;;;;;;11.25;100.00;100266.84;7388040;19;20772;-39
2023/03/22 09:35:55;;;;;;;11.00;4.30;;;;;;;11.30;100.00;100273.03;7393240;19;20391;-40
2023/03/22 09:38:26;;;;;;;10.20;5.53;;;;;;;11.29;100.00;100273.88;7386898;19;20953;-42
2023/03/22 09:40:59;;;;;;;11.97;6.00;;;;;;;11.25;100.00;100274.59;7387428;19;20985;-40
2023/03/22 09:43:34;;;;;;;6.63;3.17;;;;;;;11.25;100.00;100267.75;7387173;19;20415;-44
2023/03/22 09:48:59;;;;;;;11.90;3.70;;;;;;;11.21;100.00;100274.50;7413557;19;20502;-40
2023/03/22 09:51:32;;;;;;;12.83;5.10;;;;;;;11.24;100.00;100259.94;7419326;19;20433;-41
2023/03/22 09:54:00;;;;;;;21.80;7.97;;;;;;;11.23;100.00;100274.53;7428616;19;20395;-42
2023/03/22 09:56:30;;;;;;;61.27;18.33;;;;;;;11.34;100.00;100260.25;7412019;19;20443;-42
2023/03/22 09:59:06;;;;;;;15.43;6.77;;;;;;;11.38;100.00;100268.13;7424840;19;20403;-42
2023/03/22 10:01:38;;;;;;;27.73;8.50;;;;;;;11.46;100.00;100252.03;7419693;19;20454;-40
2023/03/22 10:07:05;;;;;;;10.70;5.23;;;;;;;11.53;100.00;100268.56;7428464;19;20470;-41
2023/03/22 10:09:40;;;;;;;14.97;6.27;;;;;;;11.58;100.00;100250.63;7421407;19;20703;-42
2023/03/22 10:12:15;;;;;;;18.80;4.70;;;;;;;11.59;100.00;100257.56;7429783;19;20753;-39
2023/03/22 10:14:50;;;;;;;7.63;4.00;;;;;;;11.63;100.00;100258.53;7428805;19;20441;-44
2023/03/22 10:17:21;;;;;;;10.57;4.57;;;;;;;11.61;100.00;100266.22;7423428;19;20422;-39
2023/03/22 10:19:55;;;;;;;16.20;5.17;;;;;;;11.60;100.00;100255.00;7427766;19;20409;-44
2023/03/22 10:22:30;;;;;;;11.53;4.20;;;;;;;11.65;100.00;100268.06;7426063;19;20403;-40
2023/03/22 10:25:02;;;;;;;13.63;5.27;;;;;;;11.59;100.00;100266.16;7428911;19;20426;-42
2023/03/22 10:27:32;;;;;;;6.20;3.10;;;;;;;11.57;100.00;100282.44;7423693;19;20800;-40
2023/03/22 10:30:04;;;;;;;9.30;3.20;;;;;;;11.56;100.00;100279.00;7429669;19;20399;-42
2023/03/22 10:32:38;;;;;;;15.53;4.13;;;;;;;11.57;100.00;100282.44;7424167;19;20435;-39
2023/03/22 10:35:25;;;;;;;7.00;2.67;;;;;;;11.54;100.00;100277.22;7430043;19;20395;-40
2023/03/22 10:37:59;;;;;;;9.80;3.33;;;;;;;11.59;100.00;100291.16;7422655;19;20477;-43
2023/03/22 10:40:31;;;;;;;9.60;2.73;;;;;;;11.55;100.00;100297.03;7429850;19;20788;-40
2023/03/22 10:43:02;;;;;;;5.30;2.80;;;;;;;11.60;100.00;100279.97;7424454;19;20414;-47
2023/03/22 10:45:33;;;;;;;5.87;1.97;;;;;;;11.65;100.00;100293.91;7426793;19;20415;-40
2023/03/22 10:48:06;;;;;;;6.10;2.13;;;;;;;11.65;100.00;100295.63;7422267;19;20447;-41
2023/03/22 10:50:38;;;;;;;7.63;2.90;;;;;;;11.84;100.00;100297.03;7428758;19;20432;-40
2023/03/22 10:53:14;;;;;;;7.77;2.97;;;;;;;11.75;100.00;100301.09;7423623;19;20414;-42
2023/03/22 10:55:44;;;;;;;12.20;3.87;;;;;;;11.87;100.00;100295.44;7428477;19;20394;-41
2023/03/22 10:58:15;;;;;;;5.63;2.50;;;;;;;11.78;100.00;100304.63;7422235;19;20964;-42
2023/03/22 11:00:47;;;;;;;7.77;1.70;;;;;;;11.75;100.00;100316.59;7428079;19;20936;-44
2023/03/22 11:03:31;;;;;;;12.03;3.47;;;;;;;11.84;100.00;100297.03;7417222;19;20415;-41
2023/03/22 11:06:03;;;;;;;11.47;3.30;;;;;;;11.86;100.00;100297.97;7426574;19;20915;-40
2023/03/22 11:08:44;;;;;;;5.60;1.77;;;;;;;11.86;100.00;100308.28;7420455;19;20459;-40
2023/03/22 11:11:22;;;;;;;10.70;3.00;;;;;;;11.87;100.00;100304.88;7428760;19;20926;-43
2023/03/22 11:13:57;;;;;;;6.63;2.40;;;;;;;12.05;100.00;100312.31;7423068;19;20436;-43
2023/03/22 11:16:27;;;;;;;7.03;3.13;;;;;;;12.08;100.00;100304.66;7420443;19;20403;-41
2023/03/22 11:18:58;;;;;;;8.37;3.17;;;;;;;12.17;100.00;100313.50;7394402;19;20464;-42
2023/03/22 11:21:32;;;;;;;6.47;4.70;;;;;;;12.13;100.00;100330.63;7399961;19;20404;-41
2023/03/22 11:24:06;;;;;;;6.90;2.40;;;;;;;12.06;100.00;100341.63;7395198;19;20502;-40
2023/03/22 11:26:38;;;;;;;7.07;2.50;;;;;;;11.97;100.00;100340.50;7395413;19;20403;-41
2023/03/22 11:29:15;;;;;;;7.10;2.40;;;;;;;11.98;100.00;100336.19;7392963;19;20434;-43
2023/03/22 11:31:54;;;;;;;6.23;2.70;;;;;;;11.99;100.00;100340.53;7397617;19;20402;-43
2023/03/22 11:34:26;;;;;;;15.47;5.77;;;;;;;12.10;100.00;100334.00;7391930;19;20443;-41
2023/03/22 11:36:58;;;;;;;8.83;3.57;;;;;;;12.09;100.00;100340.00;7394458;19;20432;-40
2023/03/22 11:39:31;;;;;;;8.13;2.40;;;;;;;11.94;100.00;100353.34;7392355;19;20443;-40